Time;durP1;ratioP1;P1;durP2;ratioP2;P2;SDS_P1;SDS_P2;PMS_P1;PMS_P2;Temp;Humidity;BMP_temperature;BMP_pressure;BME280_temperature;BME280_humidity;BME280_pressure;Samples;Min_cycle;Max_cycle;Signal;HPM_P1;HPM_P2
2023/04/14 00:02:10;;;;;;;11.07;10.17;;;5.70;99.90;;;;;;4909345;29;20231;-76
2023/04/14 00:04:37;;;;;;;10.40;9.67;;;5.80;99.90;;;;;;4908208;29;20203;-76
2023/04/14 00:07:05;;;;;;;10.90;10.00;;;5.80;99.90;;;;;;4907304;29;20643;-77
2023/04/14 00:09:32;;;;;;;11.30;10.47;;;5.70;99.90;;;;;;4904217;29;20254;-76
2023/04/14 00:11:58;;;;;;;10.97;10.17;;;5.70;99.90;;;;;;4907689;29;20227;-76
2023/04/14 00:14:25;;;;;;;11.43;10.53;;;5.80;99.90;;;;;;4913214;29;20264;-76
2023/04/14 00:16:52;;;;;;;11.10;10.30;;;5.80;99.90;;;;;;4910906;29;20329;-76
2023/04/14 00:19:19;;;;;;;11.40;10.50;;;5.80;99.90;;;;;;4913396;29;20221;-76
2023/04/14 00:21:46;;;;;;;12.40;11.37;;;5.80;99.90;;;;;;4908935;29;20194;-77
2023/04/14 00:24:14;;;;;;;11.37;10.53;;;5.80;99.90;;;;;;4906186;29;20318;-77
2023/04/14 00:26:41;;;;;;;12.73;11.63;;;5.70;99.90;;;;;;4911803;29;20280;-76
2023/04/14 00:29:08;;;;;;;10.77;10.07;;;5.70;99.90;;;;;;4910871;29;20224;-77
2023/04/14 00:31:35;;;;;;;11.17;10.37;;;5.70;99.90;;;;;;4913019;29;20221;-76
2023/04/14 00:34:02;;;;;;;10.33;9.53;;;5.70;99.90;;;;;;4910247;29;20205;-76
2023/04/14 00:36:31;;;;;;;9.87;9.13;;;5.70;99.90;;;;;;4907824;29;20703;-76
2023/04/14 00:38:59;;;;;;;10.17;9.37;;;5.70;99.90;;;;;;4907965;29;20633;-77
2023/04/14 00:41:32;;;;;;;10.30;9.50;;;5.70;99.90;;;;;;4906780;29;20257;-76
2023/04/14 00:44:00;;;;;;;10.67;9.77;;;5.70;99.90;;;;;;4910342;29;20216;-76
2023/04/14 00:46:28;;;;;;;9.70;9.00;;;5.70;99.90;;;;;;4902499;29;20207;-77
2023/04/14 00:48:56;;;;;;;9.80;9.00;;;5.70;99.90;;;;;;4910726;29;20236;-77
2023/04/14 00:51:23;;;;;;;10.47;9.70;;;5.60;99.90;;;;;;4913198;29;20307;-77
2023/04/14 00:53:53;;;;;;;10.00;9.30;;;5.60;99.90;;;;;;4908669;29;20717;-76
2023/04/14 00:56:21;;;;;;;9.70;8.90;;;5.60;99.90;;;;;;4906785;29;20704;-76
2023/04/14 00:58:52;;;;;;;10.27;9.23;;;5.70;99.90;;;;;;4907571;29;20227;-77
2023/04/14 01:01:19;;;;;;;9.73;8.83;;;5.70;99.90;;;;;;4909880;29;20626;-76
2023/04/14 01:03:47;;;;;;;10.07;9.23;;;5.70;99.90;;;;;;4910701;29;20238;-77
2023/04/14 01:06:13;;;;;;;9.37;8.67;;;5.70;99.90;;;;;;4914931;29;20234;-77
2023/04/14 01:08:40;;;;;;;9.40;8.70;;;5.70;99.90;;;;;;4910719;29;20231;-76
2023/04/14 01:11:17;;;;;;;9.80;8.85;;;5.70;99.90;;;;;;4909577;29;20201;-77
2023/04/14 01:13:53;;;;;;;9.53;8.83;;;5.70;99.90;;;;;;4908859;29;20706;-76
2023/04/14 01:16:27;;;;;;;9.93;9.00;;;5.70;99.90;;;;;;4913240;29;20214;-76
2023/04/14 01:19:06;;;;;;;10.47;9.50;;;5.70;99.90;;;;;;4913004;29;20618;-76
2023/04/14 01:21:40;;;;;;;9.80;9.00;;;5.70;99.90;;;;;;4911775;29;20687;-76
2023/04/14 01:24:30;;;;;;;10.10;9.40;;;5.70;99.90;;;;;;4911569;29;20207;-76
2023/04/14 01:27:05;;;;;;;9.50;8.80;;;5.70;99.90;;;;;;4910428;29;20580;-77
2023/04/14 01:30:10;;;;;;;9.97;9.07;;;5.70;99.90;;;;;;4905583;29;20207;-76
2023/04/14 01:32:45;;;;;;;10.27;9.47;;;5.70;99.90;;;;;;4868396;29;20711;-77
2023/04/14 01:35:19;;;;;;;9.47;8.80;;;5.70;99.90;;;;;;4906765;29;20219;-76
2023/04/14 01:37:49;;;;;;;9.77;9.07;;;5.70;99.90;;;;;;4908131;29;20669;-76
2023/04/14 01:40:18;;;;;;;9.63;8.93;;;5.70;99.90;;;;;;4913464;29;20209;-77
2023/04/14 01:42:48;;;;;;;9.33;8.63;;;5.70;99.90;;;;;;4912507;29;20202;-76
2023/04/14 01:45:18;;;;;;;10.50;9.63;;;5.60;99.90;;;;;;4916200;29;20206;-76
2023/04/14 01:47:47;;;;;;;10.67;9.87;;;5.60;99.90;;;;;;4911870;29;20233;-76
2023/04/14 01:50:16;;;;;;;9.87;9.00;;;5.50;99.90;;;;;;4910398;29;20213;-77
2023/04/14 01:52:46;;;;;;;9.73;9.00;;;5.50;99.90;;;;;;4909534;29;20278;-77
2023/04/14 01:55:16;;;;;;;9.43;8.63;;;5.50;99.90;;;;;;4908974;29;20215;-77
2023/04/14 01:57:45;;;;;;;9.40;8.70;;;5.50;99.90;;;;;;4912380;29;20221;-76
2023/04/14 02:00:14;;;;;;;9.20;8.50;;;5.50;99.90;;;;;;4911751;29;20206;-76
2023/04/14 02:02:42;;;;;;;9.10;8.40;;;5.40;99.90;;;;;;4915465;29;20202;-76
2023/04/14 02:05:12;;;;;;;9.60;8.90;;;5.40;99.90;;;;;;4912929;29;20213;-76
2023/04/14 02:07:40;;;;;;;9.17;8.50;;;5.40;99.90;;;;;;4910068;29;20217;-76
2023/04/14 02:10:10;;;;;;;9.50;8.70;;;5.30;99.90;;;;;;4909091;29;20211;-76
2023/04/14 02:12:39;;;;;;;9.93;9.07;;;5.30;99.90;;;;;;4908210;29;20280;-76
2023/04/14 02:15:11;;;;;;;10.07;9.37;;;5.20;99.90;;;;;;4908214;29;20249;-76
2023/04/14 02:17:38;;;;;;;9.43;8.67;;;5.20;99.90;;;;;;4903791;29;20709;-77
2023/04/14 02:20:08;;;;;;;10.10;9.40;;;5.10;99.90;;;;;;4911154;29;20629;-76
2023/04/14 02:22:36;;;;;;;10.27;9.37;;;5.10;99.90;;;;;;4908513;29;20202;-76
2023/04/14 02:25:04;;;;;;;9.73;8.83;;;5.10;99.90;;;;;;4911810;29;20214;-76
2023/04/14 02:27:40;;;;;;;9.70;9.00;;;5.10;99.90;;;;;;4909844;29;20221;-76
2023/04/14 02:30:12;;;;;;;9.73;8.93;;;5.10;99.90;;;;;;4909257;29;20204;-77
2023/04/14 02:32:43;;;;;;;9.43;8.83;;;5.10;99.90;;;;;;4911311;29;20230;-76
2023/04/14 02:35:13;;;;;;;9.30;8.60;;;5.00;99.90;;;;;;4912238;29;20199;-76
2023/04/14 02:37:45;;;;;;;10.57;9.10;;;4.90;99.90;;;;;;4912920;29;20279;-76
2023/04/14 02:40:17;;;;;;;10.33;9.43;;;4.90;99.90;;;;;;4912251;29;20212;-76
2023/04/14 02:42:47;;;;;;;9.73;9.03;;;4.90;99.90;;;;;;4910288;29;20212;-76
2023/04/14 02:45:22;;;;;;;9.87;9.10;;;4.80;99.90;;;;;;4907444;29;20208;-77
2023/04/14 02:47:54;;;;;;;10.40;9.43;;;4.80;99.90;;;;;;4910841;29;20320;-76
2023/04/14 02:50:22;;;;;;;10.30;9.27;;;4.70;99.90;;;;;;4909155;29;20288;-78
2023/04/14 02:53:06;;;;;;;9.70;9.00;;;4.60;99.90;;;;;;4921345;29;20228;-78
2023/04/14 02:55:37;;;;;;;10.67;9.73;;;4.60;99.90;;;;;;4902802;29;20299;-80
2023/04/14 02:58:05;;;;;;;9.83;8.93;;;4.50;99.90;;;;;;4912218;29;20280;-78
2023/04/14 03:00:38;;;;;;;9.13;8.23;;;4.50;99.90;;;;;;4915941;29;20201;-78
2023/04/14 03:03:05;;;;;;;8.60;7.80;;;4.50;99.90;;;;;;4905861;29;20591;-79
2023/04/14 03:05:33;;;;;;;8.60;7.90;;;4.50;99.90;;;;;;4920605;29;20204;-79
2023/04/14 03:08:12;;;;;;;8.40;7.70;;;4.40;99.90;;;;;;4908754;29;20251;-79
2023/04/14 03:10:42;;;;;;;8.30;7.60;;;4.40;99.90;;;;;;4907816;29;20205;-80
2023/04/14 03:13:11;;;;;;;9.13;8.33;;;4.30;99.90;;;;;;4912350;29;20695;-79
2023/04/14 03:15:39;;;;;;;10.40;9.70;;;4.30;99.90;;;;;;4920400;29;20204;-78
2023/04/14 03:18:06;;;;;;;9.90;9.30;;;4.30;99.90;;;;;;4911149;29;20226;-79
2023/04/14 03:20:36;;;;;;;11.17;10.23;;;4.30;99.90;;;;;;4916959;29;20628;-78
2023/04/14 03:23:04;;;;;;;10.67;9.87;;;4.30;99.90;;;;;;4914949;29;20671;-78
2023/04/14 03:25:36;;;;;;;10.47;9.70;;;4.30;99.90;;;;;;4923687;29;20195;-78
2023/04/14 03:28:12;;;;;;;10.27;9.47;;;4.30;99.90;;;;;;4910453;29;20325;-78
2023/04/14 03:30:43;;;;;;;10.80;9.90;;;4.20;99.90;;;;;;4908064;29;20679;-78
2023/04/14 03:33:14;;;;;;;10.43;9.70;;;4.20;99.90;;;;;;4913832;29;20695;-78
2023/04/14 03:35:43;;;;;;;10.63;9.83;;;4.20;99.90;;;;;;4911816;29;20201;-78
2023/04/14 03:38:10;;;;;;;10.73;9.83;;;4.10;99.90;;;;;;4910302;29;20220;-78
2023/04/14 03:40:43;;;;;;;10.97;10.07;;;4.10;99.90;;;;;;4906422;29;20621;-78
2023/04/14 03:43:11;;;;;;;11.10;10.20;;;4.10;99.90;;;;;;4913049;29;20203;-78
2023/04/14 03:45:40;;;;;;;10.97;10.17;;;4.10;99.90;;;;;;4907543;29;20207;-78
2023/04/14 03:48:11;;;;;;;10.87;10.10;;;4.10;99.90;;;;;;4911616;29;20251;-78
2023/04/14 03:50:46;;;;;;;10.20;9.43;;;4.20;99.90;;;;;;4907755;29;20267;-78
2023/04/14 03:53:17;;;;;;;10.73;9.90;;;4.20;99.90;;;;;;4909178;29;20602;-78
2023/04/14 03:55:47;;;;;;;11.57;10.53;;;4.10;99.90;;;;;;4909064;29;20238;-79
2023/04/14 03:58:16;;;;;;;11.00;10.10;;;4.10;99.90;;;;;;4908510;29;20232;-75
2023/04/14 04:00:46;;;;;;;10.80;10.00;;;4.10;99.90;;;;;;4910979;29;20228;-76
2023/04/14 04:03:14;;;;;;;11.20;10.40;;;4.10;99.90;;;;;;4907938;29;20200;-76
2023/04/14 04:05:43;;;;;;;10.97;10.20;;;4.00;99.90;;;;;;4910962;29;20245;-76
2023/04/14 04:08:10;;;;;;;11.27;10.27;;;4.00;99.90;;;;;;4907169;29;20232;-75
2023/04/14 04:10:38;;;;;;;10.97;10.17;;;4.00;99.90;;;;;;4908787;29;20228;-75
2023/04/14 04:13:12;;;;;;;11.40;10.60;;;4.00;99.90;;;;;;4907891;29;20224;-75
2023/04/14 04:15:41;;;;;;;11.23;10.33;;;4.00;99.90;;;;;;4906460;29;20199;-75
2023/04/14 04:18:14;;;;;;;11.40;10.57;;;3.90;99.90;;;;;;4910531;29;20286;-75
2023/04/14 04:20:42;;;;;;;12.50;11.37;;;3.90;99.90;;;;;;4909164;29;20605;-75
2023/04/14 04:23:10;;;;;;;11.87;10.87;;;3.90;99.90;;;;;;4908102;29;20281;-75
2023/04/14 04:25:39;;;;;;;11.53;10.67;;;3.90;99.90;;;;;;4907450;29;20263;-76
2023/04/14 04:28:16;;;;;;;12.23;11.13;;;3.80;99.90;;;;;;4906267;29;20220;-75
2023/04/14 04:30:46;;;;;;;11.60;10.80;;;3.80;99.90;;;;;;4910365;29;20203;-75
2023/04/14 04:33:15;;;;;;;12.30;11.23;;;3.80;99.90;;;;;;4908646;29;20249;-75
2023/04/14 04:35:42;;;;;;;12.73;11.60;;;3.90;99.90;;;;;;4906430;29;20200;-75
2023/04/14 04:38:10;;;;;;;11.80;11.00;;;3.90;99.90;;;;;;4909788;29;20228;-75
2023/04/14 04:40:39;;;;;;;12.07;11.27;;;3.90;99.90;;;;;;4910313;29;20228;-75
2023/04/14 04:43:12;;;;;;;12.00;11.10;;;3.80;99.90;;;;;;4910795;29;20196;-75
2023/04/14 04:45:57;;;;;;;15.03;11.67;;;3.90;99.90;;;;;;4910206;29;20196;-75
2023/04/14 04:48:24;;;;;;;13.40;12.40;;;3.90;99.90;;;;;;4913581;29;20267;-75
2023/04/14 04:50:50;;;;;;;13.07;11.97;;;3.90;99.90;;;;;;4912989;29;20208;-75
2023/04/14 04:53:18;;;;;;;12.33;11.33;;;4.00;99.90;;;;;;4911529;29;20752;-75
2023/04/14 04:55:45;;;;;;;13.00;11.90;;;4.00;99.90;;;;;;4914823;29;20211;-76
2023/04/14 04:58:12;;;;;;;12.80;11.87;;;4.00;99.90;;;;;;4914436;29;20286;-76
2023/04/14 05:00:38;;;;;;;14.03;12.60;;;4.00;99.90;;;;;;4910099;29;20208;-76
2023/04/14 05:03:06;;;;;;;12.90;11.80;;;4.00;99.90;;;;;;4909856;29;20204;-76
2023/04/14 05:05:35;;;;;;;12.77;11.83;;;4.00;99.90;;;;;;4910630;29;20748;-75
2023/04/14 05:08:02;;;;;;;12.80;11.67;;;3.90;99.90;;;;;;4914648;29;20255;-75
2023/04/14 05:10:29;;;;;;;13.00;12.00;;;3.90;99.90;;;;;;4913866;29;20280;-76
2023/04/14 05:12:56;;;;;;;12.77;11.77;;;3.90;99.90;;;;;;4915039;29;20594;-76
2023/04/14 05:15:23;;;;;;;13.50;12.30;;;3.90;99.90;;;;;;4915480;29;20634;-76
2023/04/14 05:17:49;;;;;;;12.10;11.10;;;3.90;99.90;;;;;;4910805;29;20332;-76
2023/04/14 05:20:18;;;;;;;13.57;12.27;;;3.90;99.90;;;;;;4910038;29;20204;-75
2023/04/14 05:22:45;;;;;;;13.70;12.40;;;4.00;99.90;;;;;;4903143;29;20304;-77
2023/04/14 05:25:11;;;;;;;13.70;12.43;;;4.10;99.90;;;;;;4914319;29;20250;-75
2023/04/14 05:27:38;;;;;;;12.40;11.50;;;4.10;99.90;;;;;;4913412;29;20285;-75
2023/04/14 05:30:06;;;;;;;12.93;12.00;;;4.30;99.90;;;;;;4915157;29;20197;-74
2023/04/14 05:32:33;;;;;;;12.97;11.87;;;4.50;99.90;;;;;;4914993;29;20212;-74
2023/04/14 05:35:01;;;;;;;12.30;11.40;;;4.80;99.90;;;;;;4913739;29;20204;-75
2023/04/14 05:37:29;;;;;;;13.03;12.03;;;5.30;99.90;;;;;;4909006;29;20723;-75
2023/04/14 05:39:56;;;;;;;13.77;12.57;;;5.70;99.90;;;;;;4908645;29;20690;-79
2023/04/14 05:42:23;;;;;;;12.93;12.03;;;6.00;99.90;;;;;;4912151;29;20567;-79
2023/04/14 05:44:50;;;;;;;12.80;11.70;;;6.20;99.90;;;;;;4915557;29;20268;-78
2023/04/14 05:47:16;;;;;;;12.97;12.03;;;6.50;99.90;;;;;;4913203;29;20230;-79
2023/04/14 05:49:43;;;;;;;11.60;10.47;;;6.60;99.90;;;;;;4910498;29;20198;-80
2023/04/14 05:52:10;;;;;;;6.67;4.03;;;6.60;99.90;;;;;;4910253;29;20207;-79
2023/04/14 05:54:38;;;;;;;5.97;3.93;;;6.80;99.90;;;;;;4912514;29;20311;-80
2023/04/14 05:57:05;;;;;;;6.13;5.53;;;6.90;99.90;;;;;;4910260;29;20210;-80
2023/04/14 05:59:32;;;;;;;7.63;4.30;;;7.00;99.90;;;;;;4913512;29;20214;-79
2023/04/14 06:02:01;;;;;;;6.60;4.07;;;7.10;99.90;;;;;;4911295;29;20597;-79
2023/04/14 06:04:27;;;;;;;6.93;4.40;;;7.10;99.90;;;;;;4911038;29;20262;-79
2023/04/14 06:06:54;;;;;;;6.67;3.97;;;7.20;99.90;;;;;;4909999;29;20211;-79
2023/04/14 06:09:21;;;;;;;7.50;3.93;;;7.30;99.90;;;;;;4908118;29;20216;-79
2023/04/14 06:11:49;;;;;;;9.50;4.40;;;7.50;99.90;;;;;;4913495;29;20231;-79
2023/04/14 06:14:16;;;;;;;4.57;3.83;;;7.60;99.90;;;;;;4912604;29;20563;-79
2023/04/14 06:16:43;;;;;;;8.00;4.70;;;7.80;99.90;;;;;;4914529;29;20230;-79
2023/04/14 06:19:10;;;;;;;8.50;6.40;;;8.10;99.90;;;;;;4911659;29;20223;-80
2023/04/14 06:21:36;;;;;;;6.37;4.13;;;8.30;99.90;;;;;;4909288;29;20231;-79
2023/04/14 06:24:03;;;;;;;9.63;8.83;;;8.40;99.90;;;;;;4908708;29;20287;-80
2023/04/14 06:26:31;;;;;;;10.73;9.70;;;8.50;99.90;;;;;;4911717;29;20271;-79
2023/04/14 06:29:00;;;;;;;10.87;9.87;;;8.70;99.90;;;;;;4910829;29;20230;-80
2023/04/14 06:31:27;;;;;;;11.03;9.93;;;8.90;99.90;;;;;;4872639;29;1076469;-80
2023/04/14 06:33:54;;;;;;;7.87;6.40;;;9.10;99.90;;;;;;4912478;29;20213;-80
2023/04/14 06:36:20;;;;;;;7.03;4.30;;;9.30;99.90;;;;;;4912922;29;20229;-81
2023/04/14 06:38:47;;;;;;;8.93;7.43;;;9.20;99.90;;;;;;4905890;29;20288;-79
2023/04/14 06:41:14;;;;;;;6.80;3.90;;;9.20;99.90;;;;;;4910052;29;20208;-81
2023/04/14 06:43:41;;;;;;;9.50;3.50;;;9.20;99.90;;;;;;4914386;29;20264;-80
2023/04/14 06:46:09;;;;;;;7.27;4.63;;;9.10;99.90;;;;;;4912650;29;20208;-80
2023/04/14 06:48:36;;;;;;;8.40;6.70;;;9.10;99.90;;;;;;4917091;29;20223;-81
2023/04/14 06:51:03;;;;;;;11.93;10.03;;;9.30;99.90;;;;;;4911993;29;20204;-80
2023/04/14 06:53:30;;;;;;;8.20;7.40;;;9.50;99.90;;;;;;4911641;29;20275;-80
2023/04/14 06:56:00;;;;;;;8.97;8.13;;;9.60;99.90;;;;;;4912168;29;20224;-79
2023/04/14 06:58:27;;;;;;;9.63;7.40;;;9.80;99.90;;;;;;4911114;29;20232;-80
2023/04/14 07:00:55;;;;;;;8.97;8.30;;;10.00;99.90;;;;;;4915864;29;20235;-81
2023/04/14 07:03:24;;;;;;;6.03;5.33;;;10.30;99.90;;;;;;4912384;29;20228;-78
2023/04/14 07:05:51;;;;;;;6.13;5.47;;;10.50;99.90;;;;;;4917558;29;20491;-79
2023/04/14 07:08:19;;;;;;;7.50;4.87;;;10.70;99.90;;;;;;4905887;29;20221;-79
2023/04/14 07:10:46;;;;;;;7.40;6.70;;;10.80;99.90;;;;;;4909042;29;20224;-79
2023/04/14 07:13:13;;;;;;;7.67;5.53;;;11.00;99.90;;;;;;4917359;29;20206;-79
2023/04/14 07:15:46;;;;;;;9.57;5.73;;;11.30;99.90;;;;;;4911677;29;20203;-79
2023/04/14 07:18:13;;;;;;;5.30;4.80;;;11.60;99.90;;;;;;4915220;29;20233;-79
2023/04/14 07:20:41;;;;;;;6.07;5.10;;;11.80;99.90;;;;;;4913081;29;20293;-80
2023/04/14 07:23:08;;;;;;;11.87;4.93;;;12.20;99.90;;;;;;4915236;29;20247;-79
2023/04/14 07:25:35;;;;;;;5.47;4.07;;;12.40;99.90;;;;;;4909777;29;20212;-77
2023/04/14 07:28:02;;;;;;;7.00;3.83;;;12.90;99.90;;;;;;4909677;29;20223;-77
2023/04/14 07:30:29;;;;;;;7.07;3.80;;;13.30;99.90;;;;;;4910733;29;20204;-78
2023/04/14 07:32:55;;;;;;;7.60;3.73;;;13.90;99.90;;;;;;4914662;29;20237;-78
2023/04/14 07:35:24;;;;;;;7.37;3.70;;;14.10;99.90;;;;;;4905785;29;20272;-77
2023/04/14 07:37:52;;;;;;;5.13;3.50;;;14.30;99.90;;;;;;4916341;29;20307;-78
2023/04/14 07:40:19;;;;;;;3.70;2.90;;;14.40;99.90;;;;;;4907936;29;20659;-79
2023/04/14 07:42:47;;;;;;;7.23;5.47;;;14.90;99.90;;;;;;4909622;29;20210;-76
2023/04/14 07:45:14;;;;;;;10.57;5.13;;;14.90;99.90;;;;;;4913446;29;20666;-78
2023/04/14 07:47:40;;;;;;;5.00;3.00;;;15.00;99.90;;;;;;4909724;29;20765;-78
2023/04/14 07:50:08;;;;;;;4.30;3.03;;;15.20;99.90;;;;;;4907340;29;20669;-78
2023/04/14 07:52:35;;;;;;;5.00;3.07;;;15.20;99.90;;;;;;4917153;29;20206;-79
2023/04/14 07:55:04;;;;;;;5.07;3.07;;;15.50;99.90;;;;;;4908300;29;20215;-78
2023/04/14 07:57:31;;;;;;;8.07;4.13;;;15.30;99.90;;;;;;4911937;29;20786;-78
2023/04/14 07:59:57;;;;;;;6.23;2.80;;;15.40;99.90;;;;;;4913333;29;20215;-78
2023/04/14 08:02:24;;;;;;;4.82;3.03;;;15.50;99.90;;;;;;4912346;29;20463;-79
2023/04/14 08:04:52;;;;;;;12.20;3.53;;;15.60;99.90;;;;;;4909793;29;20196;-78
2023/04/14 08:07:19;;;;;;;5.07;3.20;;;15.80;99.90;;;;;;4914154;29;20565;-80
2023/04/14 08:09:47;;;;;;;6.63;3.07;;;15.90;99.90;;;;;;4907722;29;20201;-78
2023/04/14 08:12:15;;;;;;;4.87;3.10;;;15.80;99.90;;;;;;4910795;29;20271;-79
2023/04/14 08:14:42;;;;;;;3.87;2.80;;;15.80;99.90;;;;;;4912683;29;20220;-79
2023/04/14 08:17:09;;;;;;;4.80;2.87;;;15.90;99.90;;;;;;4921351;29;20247;-79
2023/04/14 08:19:36;;;;;;;5.27;3.70;;;15.90;99.90;;;;;;4908529;29;20672;-79
2023/04/14 08:22:03;;;;;;;5.47;2.97;;;15.80;99.90;;;;;;4916282;29;20267;-79
2023/04/14 08:24:30;;;;;;;6.73;2.77;;;15.80;99.90;;;;;;4909166;29;20204;-79
2023/04/14 08:26:57;;;;;;;4.43;2.83;;;16.00;99.90;;;;;;4918430;29;20282;-79
2023/04/14 08:29:25;;;;;;;4.80;2.80;;;15.60;99.90;;;;;;4909887;29;20770;-79
2023/04/14 08:31:52;;;;;;;5.60;2.90;;;16.00;99.90;;;;;;4917587;29;20218;-79
2023/04/14 08:34:18;;;;;;;6.17;3.20;;;16.10;99.90;;;;;;4911962;29;20747;-79
2023/04/14 08:36:46;;;;;;;8.43;3.20;;;16.30;99.90;;;;;;4917353;29;20212;-80
2023/04/14 08:39:13;;;;;;;6.03;3.00;;;16.20;99.90;;;;;;4915222;29;20295;-79
2023/04/14 08:41:40;;;;;;;5.00;2.77;;;15.80;99.90;;;;;;4909653;29;20752;-80
2023/04/14 08:44:07;;;;;;;4.13;2.83;;;15.70;99.90;;;;;;4910615;29;20631;-78
2023/04/14 08:46:36;;;;;;;7.60;2.70;;;16.10;99.90;;;;;;4913474;29;20229;-80
2023/04/14 08:49:05;;;;;;;5.97;2.77;;;16.10;99.90;;;;;;4911407;29;20603;-79
2023/04/14 08:51:34;;;;;;;3.47;3.17;;;16.40;99.90;;;;;;4914985;29;20558;-78
2023/04/14 08:54:04;;;;;;;4.73;3.30;;;16.70;99.90;;;;;;4913038;29;20216;-79
2023/04/14 08:56:34;;;;;;;5.50;3.50;;;17.00;99.90;;;;;;4915743;29;20256;-78
2023/04/14 08:59:01;;;;;;;4.97;3.87;;;16.90;99.90;;;;;;4913351;29;20227;-78
2023/04/14 09:01:29;;;;;;;6.00;4.10;;;16.70;99.90;;;;;;4909528;29;20238;-79
2023/04/14 09:03:58;;;;;;;3.93;3.50;;;16.80;99.90;;;;;;4908409;29;20221;-80
2023/04/14 09:06:26;;;;;;;6.80;4.23;;;17.10;99.90;;;;;;4915456;29;20569;-79
2023/04/14 09:08:53;;;;;;;5.23;3.43;;;17.00;99.90;;;;;;4917802;29;20286;-79
2023/04/14 09:11:21;;;;;;;7.23;4.40;;;17.20;99.90;;;;;;4911919;29;20207;-78
2023/04/14 09:13:49;;;;;;;5.20;3.60;;;17.50;99.90;;;;;;4916385;29;20214;-81
2023/04/14 09:16:17;;;;;;;4.87;3.43;;;17.70;99.90;;;;;;4913542;29;20234;-80
2023/04/14 09:18:45;;;;;;;3.47;2.90;;;17.70;99.90;;;;;;4912445;29;20286;-82
2023/04/14 09:21:14;;;;;;;3.90;3.30;;;17.80;99.90;;;;;;4915039;29;20206;-79
2023/04/14 09:23:41;;;;;;;6.37;3.50;;;17.40;99.90;;;;;;4909959;29;20203;-78
2023/04/14 09:26:09;;;;;;;6.60;3.50;;;17.30;99.90;;;;;;4912630;29;20239;-79
2023/04/14 09:28:36;;;;;;;6.20;3.20;;;17.40;99.90;;;;;;4910964;29;20219;-79
2023/04/14 09:31:03;;;;;;;3.70;2.70;;;17.70;99.90;;;;;;4914385;29;20479;-78
2023/04/14 09:33:30;;;;;;;4.10;3.20;;;17.80;99.90;;;;;;4912249;29;20564;-79
2023/04/14 09:35:57;;;;;;;5.60;3.60;;;18.00;99.90;;;;;;4910466;29;20598;-79
2023/04/14 09:38:36;;;;;;;5.20;4.03;;;18.00;99.90;;;;;;4910274;29;20316;-79
2023/04/14 09:41:03;;;;;;;5.00;3.93;;;17.50;99.90;;;;;;4916844;29;20210;-80
2023/04/14 09:43:30;;;;;;;6.03;3.80;;;17.60;99.90;;;;;;4913407;29;20208;-79
2023/04/14 09:46:03;;;;;;;6.27;3.80;;;17.90;99.90;;;;;;4917620;29;20199;-82
2023/04/14 09:48:30;;;;;;;5.27;4.00;;;17.80;99.90;;;;;;4908927;29;20224;-79
2023/04/14 09:51:02;;;;;;;6.57;4.63;;;17.70;99.90;;;;;;4911646;29;20203;-79
2023/04/14 09:53:29;;;;;;;5.63;3.47;;;17.60;99.90;;;;;;4916153;29;20210;-79
2023/04/14 09:56:01;;;;;;;5.87;3.00;;;17.70;99.90;;;;;;4919580;29;20729;-77
2023/04/14 09:58:30;;;;;;;4.90;3.90;;;17.70;99.90;;;;;;4912454;29;20590;-77
2023/04/14 10:00:58;;;;;;;4.57;4.17;;;17.20;99.90;;;;;;4915810;29;20199;-77
2023/04/14 10:03:36;;;;;;;5.87;4.73;;;17.00;99.90;;;;;;4916745;29;20251;-77
2023/04/14 10:06:06;;;;;;;4.90;2.73;;;16.20;99.90;;;;;;4918677;29;20221;-77
2023/04/14 10:08:37;;;;;;;6.90;3.53;;;16.00;99.90;;;;;;4909372;29;20622;-78
2023/04/14 10:11:17;;;;;;;4.77;4.10;;;16.40;99.90;;;;;;4913760;29;20220;-78
2023/04/14 10:13:44;;;;;;;4.67;4.17;;;16.80;99.90;;;;;;4912694;29;20208;-77
2023/04/14 10:16:10;;;;;;;6.23;4.57;;;16.40;99.90;;;;;;4918896;29;20282;-78
2023/04/14 10:18:37;;;;;;;4.87;4.10;;;16.50;99.90;;;;;;4911680;29;20714;-77
2023/04/14 10:21:05;;;;;;;6.70;4.00;;;17.10;99.90;;;;;;4914076;29;20221;-78
2023/04/14 10:23:32;;;;;;;4.77;3.97;;;17.20;99.90;;;;;;4914419;29;20238;-78
2023/04/14 10:26:00;;;;;;;6.40;4.20;;;17.60;99.90;;;;;;4919235;29;20226;-78
2023/04/14 10:28:30;;;;;;;4.33;3.90;;;18.00;99.90;;;;;;4915046;29;20229;-78
2023/04/14 10:30:58;;;;;;;6.87;3.80;;;18.10;99.90;;;;;;4916637;29;20203;-77
2023/04/14 10:33:25;;;;;;;4.10;3.27;;;17.90;99.90;;;;;;4916945;29;20202;-77
2023/04/14 10:35:59;;;;;;;3.27;2.97;;;17.70;99.90;;;;;;4917853;29;20229;-78
2023/04/14 10:38:42;;;;;;;3.83;2.40;;;17.30;99.90;;;;;;4908501;29;20235;-78
2023/04/14 10:41:10;;;;;;;3.13;2.40;;;16.40;99.90;;;;;;4913416;29;20210;-78
2023/04/14 10:43:39;;;;;;;5.37;2.50;;;16.30;99.90;;;;;;4911590;29;20199;-77
2023/04/14 10:46:08;;;;;;;3.67;2.40;;;16.80;99.90;;;;;;4918423;29;20298;-77
2023/04/14 10:48:37;;;;;;;6.13;2.90;;;17.00;99.90;;;;;;4912592;29;20285;-78
2023/04/14 10:51:06;;;;;;;6.20;3.00;;;17.10;99.90;;;;;;4911972;29;20827;-78
2023/04/14 10:53:45;;;;;;;4.60;3.70;;;16.80;99.90;;;;;;4912386;29;20234;-78
2023/04/14 10:56:12;;;;;;;3.77;2.87;;;16.50;99.90;;;;;;4907045;29;20305;-78
2023/04/14 10:58:40;;;;;;;4.30;3.30;;;16.30;99.90;;;;;;4912798;29;20229;-78
2023/04/14 11:01:29;;;;;;;3.83;2.37;;;15.90;99.90;;;;;;4914168;29;20756;-78
2023/04/14 11:03:56;;;;;;;3.57;2.50;;;15.50;99.90;;;;;;4915301;29;20766;-78
2023/04/14 11:06:49;;;;;;;4.87;2.67;;;15.30;99.90;;;;;;4913543;29;20204;-78
2023/04/14 11:09:25;;;;;;;3.13;2.37;;;15.70;99.90;;;;;;4915713;29;20220;-77
2023/04/14 11:11:53;;;;;;;3.30;2.30;;;16.10;99.90;;;;;;4911714;29;20210;-77
2023/04/14 11:14:27;;;;;;;2.33;2.10;;;16.40;99.90;;;;;;4915719;29;20208;-78
2023/04/14 11:16:59;;;;;;;3.87;2.50;;;16.60;99.90;;;;;;4914414;29;20270;-77
2023/04/14 11:19:26;;;;;;;3.20;2.37;;;16.70;99.90;;;;;;4915167;29;20204;-77
2023/04/14 11:21:54;;;;;;;3.77;2.20;;;16.90;99.90;;;;;;4913312;29;20235;-78
2023/04/14 11:24:21;;;;;;;5.13;2.37;;;17.30;99.90;;;;;;4916053;29;20205;-78
2023/04/14 11:26:51;;;;;;;3.53;2.27;;;17.10;99.90;;;;;;4916234;29;20200;-78
2023/04/14 11:29:18;;;;;;;4.23;2.67;;;16.80;99.90;;;;;;4917378;29;20204;-78
2023/04/14 11:31:46;;;;;;;3.13;2.30;;;16.70;99.90;;;;;;4917821;29;20275;-78
2023/04/14 11:34:13;;;;;;;3.43;2.27;;;16.50;99.90;;;;;;4912479;29;20283;-77
2023/04/14 11:36:40;;;;;;;4.87;2.40;;;16.60;99.90;;;;;;4922008;29;20220;-78
2023/04/14 11:39:07;;;;;;;3.77;3.37;;;16.50;99.90;;;;;;4914940;29;20630;-78
2023/04/14 11:41:34;;;;;;;4.13;2.80;;;16.20;99.90;;;;;;4916657;29;20200;-78
2023/04/14 11:44:01;;;;;;;4.27;2.27;;;15.80;99.90;;;;;;4911793;29;20196;-77
2023/04/14 11:46:28;;;;;;;5.73;2.70;;;15.60;99.90;;;;;;4909754;29;20192;-77
2023/04/14 11:48:56;;;;;;;5.17;2.20;;;15.30;99.90;;;;;;4912142;29;20642;-77
2023/04/14 11:51:29;;;;;;;4.10;2.17;;;15.10;99.90;;;;;;4913100;29;20597;-77
2023/04/14 11:53:57;;;;;;;4.30;3.70;;;15.00;99.90;;;;;;4914438;29;20240;-77
2023/04/14 11:56:26;;;;;;;4.67;4.03;;;14.90;99.90;;;;;;4910953;29;20277;-79
2023/04/14 11:58:59;;;;;;;4.50;3.17;;;14.90;99.90;;;;;;4910427;29;20234;-76
2023/04/14 12:01:26;;;;;;;4.13;2.33;;;14.80;99.90;;;;;;4910175;29;20256;-77
2023/04/14 12:03:53;;;;;;;5.10;4.23;;;14.70;99.90;;;;;;4910025;29;20231;-77
2023/04/14 12:06:22;;;;;;;5.57;4.50;;;14.60;99.90;;;;;;4914018;29;20202;-78
2023/04/14 12:08:51;;;;;;;4.53;4.13;;;14.50;99.90;;;;;;4915468;29;20237;-77
2023/04/14 12:11:18;;;;;;;4.40;4.00;;;14.40;99.90;;;;;;4914667;29;20227;-77
2023/04/14 12:13:47;;;;;;;4.67;3.90;;;14.50;99.90;;;;;;4913390;29;20745;-78
2023/04/14 12:16:14;;;;;;;6.83;4.23;;;14.70;99.90;;;;;;4915682;29;20256;-77
2023/04/14 12:18:41;;;;;;;5.17;3.80;;;14.60;99.90;;;;;;4912623;29;20216;-76
2023/04/14 12:21:09;;;;;;;5.40;3.80;;;14.50;99.90;;;;;;4908461;29;20211;-77
2023/04/14 12:23:38;;;;;;;4.13;3.60;;;14.80;99.90;;;;;;4913610;29;20211;-77
2023/04/14 12:26:10;;;;;;;4.10;3.70;;;15.00;99.90;;;;;;4909592;29;20208;-77
2023/04/14 12:28:39;;;;;;;4.83;3.90;;;15.30;99.90;;;;;;4911763;29;20229;-77
2023/04/14 12:31:06;;;;;;;7.73;3.60;;;15.40;99.90;;;;;;4914242;29;20674;-77
2023/04/14 12:33:34;;;;;;;5.87;3.33;;;15.70;99.90;;;;;;4913249;29;20287;-77
2023/04/14 12:36:02;;;;;;;3.63;3.10;;;15.80;99.90;;;;;;4913698;29;20268;-77
2023/04/14 12:38:29;;;;;;;4.63;2.97;;;16.00;99.90;;;;;;4913689;29;20220;-77
2023/04/14 12:40:57;;;;;;;3.93;3.50;;;15.90;99.90;;;;;;4914825;29;20204;-77
2023/04/14 12:43:29;;;;;;;4.27;3.50;;;15.80;99.90;;;;;;4910823;29;20652;-77
2023/04/14 12:45:57;;;;;;;3.97;3.47;;;15.80;99.90;;;;;;4917772;29;20223;-78
2023/04/14 12:48:39;;;;;;;5.87;3.37;;;15.60;99.80;;;;;;4913968;29;20220;-77
2023/04/14 12:51:09;;;;;;;4.67;3.50;;;15.40;99.70;;;;;;4913924;29;20192;-77
2023/04/14 12:53:36;;;;;;;4.47;3.70;;;15.20;99.90;;;;;;4911151;29;20204;-77
2023/04/14 12:56:06;;;;;;;4.67;4.03;;;15.20;99.90;;;;;;4912503;29;20227;-77
2023/04/14 12:58:33;;;;;;;4.00;3.57;;;15.20;99.40;;;;;;4910535;29;20228;-77